Time;durP1;ratioP1;P1;durP2;ratioP2;P2;SDS_P1;SDS_P2;PMS_P1;PMS_P2;Temp;Humidity;BMP_temperature;BMP_pressure;BME280_temperature;BME280_humidity;BME280_pressure;Samples;Min_cycle;Max_cycle;Signal;HPM_P1;HPM_P2
2021/08/23 04:07:04;;;;;;;;;28.33;28.33;;;;;;;;6478618;46;14948;-62
2021/08/23 04:13:06;;;;;;;;;27.00;27.00;;;;;;;;6490006;46;8973;-62
2021/08/23 04:19:08;;;;;;;;;30.67;28.00;;;;;;;;6490915;39;8955;-61
2021/08/23 04:25:10;;;;;;;;;27.33;26.67;;;;;;;;6491635;39;9080;-62
2021/08/23 04:31:12;;;;;;;;;35.67;32.67;;;;;;;;6490182;39;8971;-63
2021/08/23 04:37:15;;;;;;;;;29.00;27.50;;;;;;;;6491458;39;8938;-61
2021/08/23 04:43:17;;;;;;;;;31.00;29.67;;;;;;;;6490566;31;9087;-62
2021/08/23 04:49:19;;;;;;;;;27.33;26.67;;;;;;;;6491105;39;8918;-62
2021/08/23 04:55:21;;;;;;;;;32.67;30.33;;;;;;;;6491861;31;8935;-62
2021/08/23 05:01:24;;;;;;;;;31.00;29.00;;;;;;;;6493848;31;9030;-63
2021/08/23 05:07:26;;;;;;;;;29.67;27.00;;;;;;;;6493152;39;8944;-62
2021/08/23 05:13:28;;;;;;;;;30.67;27.67;;;;;;;;6492047;39;8968;-61
2021/08/23 05:19:30;;;;;;;;;31.67;27.67;;;;;;;;6491749;39;8913;-61
2021/08/23 05:25:34;;;;;;;;;28.67;27.33;;;;;;;;6492491;46;8947;-61
2021/08/23 05:31:36;;;;;;;;;31.33;26.33;;;;;;;;6491380;46;9015;-59
2021/08/23 05:37:38;;;;;;;;;25.33;24.00;;;;;;;;6493033;39;9531;-58
2021/08/23 05:43:41;;;;;;;;;30.00;29.67;;;;;;;;6489870;31;8983;-59
2021/08/23 05:49:43;;;;;;;;;21.00;20.33;;;;;;;;6488884;46;9098;-59
2021/08/23 05:55:45;;;;;;;;;25.33;22.33;;;;;;;;6489768;39;8968;-59
2021/08/23 06:01:54;;;;;;;;;27.33;25.67;;;;;;;;6488698;46;8982;-59
2021/08/23 06:07:58;;;;;;;;;27.33;25.00;;;;;;;;6488326;39;8975;-58
2021/08/23 06:14:00;;;;;;;;;29.00;25.67;;;;;;;;6487019;39;8995;-59
2021/08/23 06:20:04;;;;;;;;;32.00;29.00;;;;;;;;6486847;39;9625;-60
2021/08/23 06:26:06;;;;;;;;;22.00;22.00;;;;;;;;6488277;39;8970;-59
2021/08/23 06:32:10;;;;;;;;;25.75;23.50;;;;;;;;6485755;46;9078;-58
2021/08/23 06:38:12;;;;;;;;;25.25;23.50;;;;;;;;6486567;39;9022;-58
2021/08/23 06:44:15;;;;;;;;;33.33;29.67;;;;;;;;6486621;39;9006;-60
2021/08/23 06:50:18;;;;;;;;;26.50;25.00;;;;;;;;6486089;46;8982;-59
2021/08/23 06:56:21;;;;;;;;;20.50;19.00;;;;;;;;6483388;31;9000;-59
2021/08/23 07:02:23;;;;;;;;;23.00;20.67;;;;;;;;6482310;39;9003;-58
2021/08/23 07:08:30;;;;;;;;;22.50;19.25;;;;;;;;6479624;39;9010;-59
2021/08/23 07:14:32;;;;;;;;;23.50;23.25;;;;;;;;6487277;31;9079;-60
2021/08/23 07:20:35;;;;;;;;;20.00;19.25;;;;;;;;6485746;39;8990;-58
2021/08/23 07:26:37;;;;;;;;;23.50;22.25;;;;;;;;6483747;39;8987;-59
2021/08/23 07:32:40;;;;;;;;;20.75;20.50;;;;;;;;6483349;39;8991;-59
2021/08/23 07:38:42;;;;;;;;;14.75;12.00;;;;;;;;6486150;46;9079;-59
2021/08/23 07:44:45;;;;;;;;;19.00;18.25;;;;;;;;6487431;39;9012;-58
2021/08/23 07:50:48;;;;;;;;;16.00;16.00;;;;;;;;6487273;39;9134;-60
2021/08/23 07:56:50;;;;;;;;;17.00;16.75;;;;;;;;6486540;39;9013;-60
2021/08/23 08:02:52;;;;;;;;;19.75;18.25;;;;;;;;6487265;31;9812;-59
2021/08/23 08:08:55;;;;;;;;;19.25;17.25;;;;;;;;6485990;31;9001;-59
2021/08/23 08:14:59;;;;;;;;;24.75;23.00;;;;;;;;6484211;39;9824;-59
2021/08/23 08:21:01;;;;;;;;;17.75;17.00;;;;;;;;6485522;39;8967;-59
2021/08/23 08:27:03;;;;;;;;;17.25;17.00;;;;;;;;6485989;47;9072;-58
2021/08/23 08:33:05;;;;;;;;;16.50;16.00;;;;;;;;6487070;39;8995;-58
2021/08/23 08:39:09;;;;;;;;;23.25;22.50;;;;;;;;6488822;39;9078;-59
2021/08/23 08:45:12;;;;;;;;;14.50;14.25;;;;;;;;6487270;39;9006;-59
2021/08/23 08:51:15;;;;;;;;;17.25;17.25;;;;;;;;6488244;39;8995;-59
2021/08/23 08:57:18;;;;;;;;;18.00;17.25;;;;;;;;6487967;31;9035;-57
2021/08/23 09:03:27;;;;;;;;;18.00;16.75;;;;;;;;6487252;39;9007;-58
2021/08/23 09:09:31;;;;;;;;;14.75;13.75;;;;;;;;6488494;39;8986;-59
2021/08/23 09:15:39;;;;;;;;;18.75;18.00;;;;;;;;6487392;39;8980;-59
2021/08/23 09:21:41;;;;;;;;;20.50;19.25;;;;;;;;6486054;39;9606;-59
2021/08/23 09:27:44;;;;;;;;;20.75;18.75;;;;;;;;6487864;39;8976;-61
2021/08/23 09:33:46;;;;;;;;;14.50;14.50;;;;;;;;6488373;31;8971;-59
2021/08/23 09:39:48;;;;;;;;;16.50;16.00;;;;;;;;6489108;31;9103;-60
2021/08/23 09:46:10;;;;;;;;;24.00;20.75;;;;;;;;6487035;39;9132;-59
2021/08/23 09:52:21;;;;;;;;;22.75;19.75;;;;;;;;6487761;46;8976;-60
2021/08/23 09:58:25;;;;;;;;;16.25;15.00;;;;;;;;6487299;39;8982;-59
2021/08/23 10:04:29;;;;;;;;;17.75;15.25;;;;;;;;6487596;46;8995;-59
2021/08/23 10:10:31;;;;;;;;;14.75;14.75;;;;;;;;6487756;31;8991;-58
2021/08/23 10:16:35;;;;;;;;;18.25;18.25;;;;;;;;6486767;39;8994;-60
2021/08/23 10:22:40;;;;;;;;;18.50;17.75;;;;;;;;6487612;46;9005;-60
2021/08/23 10:28:47;;;;;;;;;15.50;14.50;;;;;;;;6487876;31;9017;-60
2021/08/23 10:34:51;;;;;;;;;16.75;16.75;;;;;;;;6487340;39;8979;-59
2021/08/23 10:41:14;;;;;;;;;18.25;18.00;;;;;;;;6487777;39;8998;-61
2021/08/23 10:47:17;;;;;;;;;19.25;16.00;;;;;;;;6486702;39;9089;-59
2021/08/23 10:53:20;;;;;;;;;20.50;17.50;;;;;;;;6485417;46;8959;-58
2021/08/23 10:59:23;;;;;;;;;18.00;16.00;;;;;;;;6486192;39;9007;-60
2021/08/23 11:05:25;;;;;;;;;19.00;16.00;;;;;;;;6486802;31;8942;-59
2021/08/23 11:11:34;;;;;;;;;13.75;13.75;;;;;;;;6486579;31;8977;-59
2021/08/23 11:17:44;;;;;;;;;19.25;17.00;;;;;;;;6485827;46;9074;-59
2021/08/23 11:23:48;;;;;;;;;15.75;14.00;;;;;;;;6489966;31;9023;-59
2021/08/23 11:29:56;;;;;;;;;21.00;20.75;;;;;;;;6490406;39;9501;-59
2021/08/23 11:36:00;;;;;;;;;18.50;17.50;;;;;;;;6490973;31;9550;-60
2021/08/23 11:42:05;;;;;;;;;16.50;16.50;;;;;;;;6489920;39;9025;-59
2021/08/23 11:48:07;;;;;;;;;16.50;16.00;;;;;;;;6489005;46;8955;-59
2021/08/23 11:54:10;;;;;;;;;20.50;19.25;;;;;;;;6525434;31;8922;-59
2021/08/23 12:00:14;;;;;;;;;21.00;19.50;;;;;;;;6488521;31;9004;-59
2021/08/23 12:06:16;;;;;;;;;27.25;24.50;;;;;;;;6489025;39;8982;-58
2021/08/23 12:12:22;;;;;;;;;18.50;17.00;;;;;;;;6489670;39;9079;-59
2021/08/23 12:18:33;;;;;;;;;18.75;18.00;;;;;;;;6489190;46;8974;-58
2021/08/23 12:24:35;;;;;;;;;18.75;18.75;;;;;;;;6490292;39;9682;-59
2021/08/23 12:30:38;;;;;;;;;26.25;25.00;;;;;;;;6489180;39;8974;-59
2021/08/23 12:36:41;;;;;;;;;20.75;20.75;;;;;;;;6488666;47;8972;-60
2021/08/23 12:42:44;;;;;;;;;16.25;15.75;;;;;;;;6309241;39;10001710;-60
2021/08/23 12:48:46;;;;;;;;;15.25;15.25;;;;;;;;6488914;47;9077;-58
2021/08/23 12:54:48;;;;;;;;;16.00;16.00;;;;;;;;6488689;31;9067;-59
2021/08/23 13:00:56;;;;;;;;;20.25;17.75;;;;;;;;6487735;39;9574;-59
2021/08/23 13:06:59;;;;;;;;;18.50;16.50;;;;;;;;6488560;39;9228;-59
2021/08/23 13:13:01;;;;;;;;;14.75;14.75;;;;;;;;6486831;31;8992;-61
2021/08/23 13:19:04;;;;;;;;;18.50;18.50;;;;;;;;6490311;39;8981;-59
2021/08/23 13:25:07;;;;;;;;;14.25;14.25;;;;;;;;6491526;39;8964;-60
2021/08/23 13:31:10;;;;;;;;;19.50;17.50;;;;;;;;6490927;39;8966;-62
2021/08/23 13:37:12;;;;;;;;;13.75;13.50;;;;;;;;6491448;39;8964;-60
2021/08/23 13:43:17;;;;;;;;;15.25;15.25;;;;;;;;6488682;31;9121;-61
2021/08/23 13:49:20;;;;;;;;;20.25;16.50;;;;;;;;6491136;39;8913;-61
2021/08/23 13:55:22;;;;;;;;;18.25;17.75;;;;;;;;6491179;39;8962;-62
2021/08/23 14:01:25;;;;;;;;;18.00;17.00;;;;;;;;6490357;39;9020;-61
2021/08/23 14:07:28;;;;;;;;;16.00;16.00;;;;;;;;6492038;39;8979;-61
2021/08/23 14:13:30;;;;;;;;;14.00;14.00;;;;;;;;6491219;39;8984;-62
2021/08/23 14:19:32;;;;;;;;;20.00;18.75;;;;;;;;6491484;39;8994;-62
2021/08/23 14:25:34;;;;;;;;;16.75;15.75;;;;;;;;6490854;31;9003;-62
2021/08/23 14:31:37;;;;;;;;;17.50;16.75;;;;;;;;6490951;39;9158;-62
2021/08/23 14:37:39;;;;;;;;;20.00;20.00;;;;;;;;6490853;39;9003;-62
2021/08/23 14:43:41;;;;;;;;;17.50;17.50;;;;;;;;6489698;31;8986;-63
2021/08/23 14:49:45;;;;;;;;;14.00;14.00;;;;;;;;6491885;31;9687;-62
2021/08/23 14:55:47;;;;;;;;;16.25;16.00;;;;;;;;6490840;39;9005;-62
2021/08/23 15:01:50;;;;;;;;;17.25;15.75;;;;;;;;6492302;36;9000;-62
2021/08/23 15:07:53;;;;;;;;;15.00;12.75;;;;;;;;6490822;46;8961;-61
2021/08/23 15:14:00;;;;;;;;;15.00;15.00;;;;;;;;6490213;31;8982;-62
2021/08/23 15:20:04;;;;;;;;;20.50;20.00;;;;;;;;6490974;39;9582;-62
2021/08/23 15:26:08;;;;;;;;;19.75;18.00;;;;;;;;6490784;39;8954;-62
2021/08/23 15:32:10;;;;;;;;;19.25;16.75;;;;;;;;6490797;31;9119;-62
2021/08/23 15:38:17;;;;;;;;;17.25;15.75;;;;;;;;6490301;31;8992;-62
2021/08/23 15:44:19;;;;;;;;;15.00;13.00;;;;;;;;6491042;31;8944;-62
2021/08/23 15:50:22;;;;;;;;;14.50;14.50;;;;;;;;6490714;39;8989;-61
2021/08/23 15:56:24;;;;;;;;;18.25;16.50;;;;;;;;6490360;31;9140;-62
2021/08/23 16:02:26;;;;;;;;;22.50;20.75;;;;;;;;6488758;39;9125;-62
2021/08/23 16:08:28;;;;;;;;;18.00;18.00;;;;;;;;6490412;46;9079;-61
2021/08/23 16:14:34;;;;;;;;;20.25;20.00;;;;;;;;6490788;39;9012;-62
2021/08/23 16:20:38;;;;;;;;;13.25;13.25;;;;;;;;6489569;39;8972;-61
2021/08/23 16:26:40;;;;;;;;;17.00;15.50;;;;;;;;6491262;31;8993;-62
2021/08/23 16:32:44;;;;;;;;;18.00;18.00;;;;;;;;6489739;39;8957;-63
2021/08/23 16:38:46;;;;;;;;;12.75;12.75;;;;;;;;6491348;39;9685;-61
2021/08/23 16:44:48;;;;;;;;;19.75;18.00;;;;;;;;6489776;39;8980;-62
2021/08/23 16:50:51;;;;;;;;;22.00;17.00;;;;;;;;6490664;39;9081;-63
2021/08/23 16:56:54;;;;;;;;;21.75;19.25;;;;;;;;6492297;39;9064;-62
2021/08/23 17:02:57;;;;;;;;;18.75;18.00;;;;;;;;6491655;39;8994;-62
2021/08/23 17:08:59;;;;;;;;;23.75;22.00;;;;;;;;6493144;39;8944;-63
2021/08/23 17:15:02;;;;;;;;;22.75;21.75;;;;;;;;6491565;39;8962;-63
2021/08/23 17:21:23;;;;;;;;;25.75;23.75;;;;;;;;6491607;46;8930;-62
2021/08/23 17:27:25;;;;;;;;;25.00;21.50;;;;;;;;6491911;39;8958;-63
2021/08/23 17:33:27;;;;;;;;;22.75;22.00;;;;;;;;6491756;31;8945;-61
2021/08/23 17:39:29;;;;;;;;;18.25;17.50;;;;;;;;6491834;31;8957;-62
2021/08/23 17:45:32;;;;;;;;;23.75;22.00;;;;;;;;6491034;46;8957;-61
2021/08/23 17:51:35;;;;;;;;;21.75;21.50;;;;;;;;6491449;31;8914;-62
2021/08/23 17:57:38;;;;;;;;;25.00;23.75;;;;;;;;6490734;31;8991;-63
2021/08/23 18:03:41;;;;;;;;;23.75;22.25;;;;;;;;6490174;39;9037;-61
2021/08/23 18:09:44;;;;;;;;;34.33;30.00;;;;;;;;6491374;46;8933;-61
2021/08/23 18:15:51;;;;;;;;;26.50;26.50;;;;;;;;6490569;39;8954;-61
2021/08/23 18:21:55;;;;;;;;;22.75;20.75;;;;;;;;6491637;31;8934;-61
2021/08/23 18:27:57;;;;;;;;;22.50;22.25;;;;;;;;6491422;39;9644;-62
2021/08/23 18:33:59;;;;;;;;;30.00;30.00;;;;;;;;6491016;39;8953;-63
2021/08/23 18:40:03;;;;;;;;;39.00;33.33;;;;;;;;6490576;39;9586;-62
2021/08/23 18:46:06;;;;;;;;;24.00;24.00;;;;;;;;6490172;46;9059;-63
2021/08/23 18:52:08;;;;;;;;;23.67;23.67;;;;;;;;6492216;31;9037;-62
2021/08/23 18:58:11;;;;;;;;;25.00;25.00;;;;;;;;6491228;39;9582;-62
2021/08/23 19:04:13;;;;;;;;;23.25;23.00;;;;;;;;6490125;39;9081;-63
2021/08/23 19:10:16;;;;;;;;;18.50;17.50;;;;;;;;6491626;31;9003;-62
2021/08/23 19:16:19;;;;;;;;;22.67;21.00;;;;;;;;6490398;39;8962;-63
2021/08/23 19:22:21;;;;;;;;;28.00;25.33;;;;;;;;6491477;31;9012;-62
2021/08/23 19:28:25;;;;;;;;;26.00;24.00;;;;;;;;6491327;31;9068;-62
2021/08/23 19:34:27;;;;;;;;;24.00;24.00;;;;;;;;6490941;39;8965;-62
2021/08/23 19:40:29;;;;;;;;;20.00;19.00;;;;;;;;6490726;46;8993;-62
2021/08/23 19:46:32;;;;;;;;;22.00;19.50;;;;;;;;6490405;39;9124;-62
2021/08/23 19:52:35;;;;;;;;;22.33;21.33;;;;;;;;6490043;46;9017;-62
2021/08/23 19:58:37;;;;;;;;;20.33;18.33;;;;;;;;6490836;39;9839;-62
2021/08/23 20:04:40;;;;;;;;;21.67;21.33;;;;;;;;6490658;39;8978;-62
2021/08/23 20:10:42;;;;;;;;;21.33;21.33;;;;;;;;6490289;39;9039;-64
2021/08/23 20:16:44;;;;;;;;;19.50;16.75;;;;;;;;6489445;39;9073;-63
2021/08/23 20:22:49;;;;;;;;;22.50;18.50;;;;;;;;6489481;46;8965;-62
2021/08/23 20:28:53;;;;;;;;;23.67;21.00;;;;;;;;6495140;31;9682;-63
2021/08/23 20:34:56;;;;;;;;;24.33;21.33;;;;;;;;6494530;39;8948;-62
2021/08/23 20:41:01;;;;;;;;;22.25;18.25;;;;;;;;6494099;39;9155;-62
2021/08/23 20:47:03;;;;;;;;;20.67;20.00;;;;;;;;6494216;39;8987;-62
2021/08/23 20:53:06;;;;;;;;;24.33;19.67;;;;;;;;6493950;46;9017;-60
2021/08/23 20:59:08;;;;;;;;;20.25;17.00;;;;;;;;6493774;46;9085;-62
2021/08/23 21:05:10;;;;;;;;;17.75;17.75;;;;;;;;6494431;39;9077;-62
2021/08/23 21:11:13;;;;;;;;;16.50;13.00;;;;;;;;6494022;31;8976;-61
2021/08/23 21:17:15;;;;;;;;;17.75;16.50;;;;;;;;6492684;46;8950;-62
2021/08/23 21:23:18;;;;;;;;;17.00;17.00;;;;;;;;6492600;39;8973;-61
2021/08/23 21:29:20;;;;;;;;;18.25;16.50;;;;;;;;6493106;39;9134;-62
2021/08/23 21:35:23;;;;;;;;;15.75;14.00;;;;;;;;6491943;39;9104;-62
2021/08/23 21:41:25;;;;;;;;;17.00;17.00;;;;;;;;6490883;39;9013;-63
2021/08/23 21:47:28;;;;;;;;;21.00;17.75;;;;;;;;6489480;39;9087;-64
2021/08/23 21:53:31;;;;;;;;;16.33;14.67;;;;;;;;6491015;39;8938;-62
2021/08/23 21:59:33;;;;;;;;;16.33;16.33;;;;;;;;6490455;39;8961;-62
2021/08/23 22:05:35;;;;;;;;;17.33;17.00;;;;;;;;6490320;39;8994;-62
2021/08/23 22:11:38;;;;;;;;;19.00;19.00;;;;;;;;6491111;39;8957;-62
2021/08/23 22:17:40;;;;;;;;;15.33;15.33;;;;;;;;6489259;46;9061;-62
2021/08/23 22:23:42;;;;;;;;;20.00;18.67;;;;;;;;6490685;39;8977;-62
2021/08/23 22:29:45;;;;;;;;;21.33;20.67;;;;;;;;6490134;31;9707;-62
2021/08/23 22:35:47;;;;;;;;;19.67;17.33;;;;;;;;6490221;31;9027;-62
2021/08/23 22:41:49;;;;;;;;;16.33;15.33;;;;;;;;6490082;39;8986;-62
2021/08/23 22:47:51;;;;;;;;;19.33;17.33;;;;;;;;6490167;39;9056;-62
2021/08/23 22:53:55;;;;;;;;;24.00;21.33;;;;;;;;6490256;39;8988;-61
2021/08/23 22:59:58;;;;;;;;;25.00;21.33;;;;;;;;6490104;39;8988;-62
2021/08/23 23:06:01;;;;;;;;;23.67;19.33;;;;;;;;6490175;39;9193;-61
2021/08/23 23:12:03;;;;;;;;;25.33;17.67;;;;;;;;6490376;39;9056;-62
2021/08/23 23:18:05;;;;;;;;;17.67;17.33;;;;;;;;6489503;39;8965;-64
2021/08/23 23:24:08;;;;;;;;;18.67;15.67;;;;;;;;6490533;31;8972;-62
2021/08/23 23:30:18;;;;;;;;;19.33;19.33;;;;;;;;6489626;39;9049;-62
2021/08/23 23:36:20;;;;;;;;;20.33;20.33;;;;;;;;6489940;39;9007;-62
2021/08/23 23:42:24;;;;;;;;;19.00;19.00;;;;;;;;6490004;39;9017;-62
2021/08/23 23:48:26;;;;;;;;;19.00;19.00;;;;;;;;6489007;46;9064;-63
2021/08/23 23:54:29;;;;;;;;;22.67;22.67;;;;;;;;6488666;46;8939;-62
